»·PEaware :: N187WP KBFL-KMHV

N187WP :: KBFL-KMHV

FLIGHT INFORMATION

Flight Status: Arrived
Operator: Privately registered:
United States
More flights under this callsign
Pilot: Roddrecus C. (26709)
Aircraft: CESSNA 172 SKYHAWK
(C172)
More flights by this aircraft type
Origin: KBFL Meadows
United States
Destination: KMHV Mojave
United States
More flights between these airports :: More routes between these airports
Route: +
File this flight plan on PilotEdge
Remarks:
Altitude:
(Current/Filed)
8,000ft
Speed:
(Current/Filed)
150kts
Departed: 11-Nov-19 12:44 PM
Arrived: 11-Nov-19 01:32 PM
Distance/Time
Traveled:
50nm/0:48
Distance/Time
To Go:
Arrived

Flight Plot

Page will automatically refresh every two minutes.


Map Options




Map Legend


Flown Route
Filed Route
Departure Airport
Arrival Airport
Navaid (VOR, NDB)
Fix

Horizontal Profiles

Position Reports

Time Latitude Longitude Heading Altitude Ground
Speed
11-Nov-19 12:10 35.437595 -119.055125 139 501ft 0kts
11-Nov-19 12:11 35.437595 -119.055125 139 501ft 0kts
11-Nov-19 12:12 35.437595 -119.055125 139 501ft 0kts
11-Nov-19 12:13 35.437595 -119.055125 139 501ft 0kts
11-Nov-19 12:14 35.437595 -119.055125 139 501ft 0kts
11-Nov-19 12:15 35.437595 -119.055125 139 501ft 0kts
11-Nov-19 12:16 35.437595 -119.055125 139 501ft 0kts
11-Nov-19 12:17 35.437595 -119.055125 139 501ft 0kts
11-Nov-19 12:18 35.437595 -119.055125 139 501ft 0kts
11-Nov-19 12:19 35.437595 -119.055125 139 501ft 0kts
11-Nov-19 12:20 35.437595 -119.055125 139 501ft 0kts
11-Nov-19 12:21 35.437595 -119.055125 139 501ft 0kts
11-Nov-19 12:22 35.437595 -119.055125 139 501ft 0kts
11-Nov-19 12:23 35.437595 -119.055125 139 501ft 0kts
11-Nov-19 12:24 35.437595 -119.055125 139 501ft 0kts
11-Nov-19 12:25 35.437595 -119.055125 139 501ft 0kts
11-Nov-19 12:26 35.437595 -119.055125 139 501ft 0kts
11-Nov-19 12:27 35.437595 -119.055125 139 501ft 0kts
11-Nov-19 12:28 35.437595 -119.055125 139 501ft 0kts
11-Nov-19 12:29 35.437595 -119.055125 139 501ft 0kts
11-Nov-19 12:30 35.437595 -119.055125 139 501ft 0kts
11-Nov-19 12:31 35.437595 -119.055125 139 501ft 0kts
11-Nov-19 12:32 35.437595 -119.055125 139 501ft 0kts
11-Nov-19 12:33 35.437595 -119.055125 139 501ft 0kts
11-Nov-19 12:34 35.437595 -119.055125 139 501ft 0kts
11-Nov-19 12:35 35.437595 -119.055125 139 501ft 0kts
11-Nov-19 12:36 35.437595 -119.055125 139 501ft 0kts
11-Nov-19 12:37 35.436940 -119.055205 173 499ft 9kts
11-Nov-19 12:38 35.434243 -119.054460 133 492ft 14kts
11-Nov-19 12:39 35.430959 -119.050466 135 492ft 20kts
11-Nov-19 12:40 35.425970 -119.044595 172 481ft 19kts
11-Nov-19 12:41 35.425665 -119.044787 236 479ft 0kts
11-Nov-19 12:42 35.425665 -119.044787 236 479ft 0kts
11-Nov-19 12:43 35.431135 -119.052833 315 500ft 96kts
11-Nov-19 12:44 35.447403 -119.072085 321 1640ft 82kts
11-Nov-19 12:45 35.461067 -119.056200 91 2598ft 88kts
11-Nov-19 12:46 35.447786 -119.034615 141 3563ft 75kts
11-Nov-19 12:47 35.431122 -119.017247 141 4397ft 73kts
11-Nov-19 12:48 35.414840 -119.000611 146 5149ft 72kts
11-Nov-19 12:49 35.397223 -118.985965 148 5543ft 91kts
11-Nov-19 12:50 35.373457 -118.967448 148 5538ft 107kts
11-Nov-19 12:51 35.348874 -118.947780 145 5537ft 110kts
11-Nov-19 12:52 35.326792 -118.927074 139 5537ft 111kts
11-Nov-19 12:53 35.303927 -118.901028 136 5537ft 111kts
11-Nov-19 12:54 35.281053 -118.874719 136 5537ft 112kts
11-Nov-19 12:55 35.258030 -118.848348 136 5537ft 112kts
11-Nov-19 12:56 35.235239 -118.822351 136 5537ft 112kts
11-Nov-19 12:57 35.212445 -118.796418 135 5538ft 112kts
11-Nov-19 12:58 35.190026 -118.769853 135 5551ft 111kts
11-Nov-19 12:59 35.168381 -118.743149 136 5570ft 110kts
11-Nov-19 13:00 35.146879 -118.716143 137 5587ft 108kts
11-Nov-19 13:01 35.126201 -118.690181 128 5598ft 102kts
11-Nov-19 13:02 35.119901 -118.657427 98 5608ft 98kts
11-Nov-19 13:03 35.116180 -118.624562 99 5615ft 97kts
11-Nov-19 13:04 35.112253 -118.591875 99 5621ft 96kts
11-Nov-19 13:05 35.108138 -118.559558 99 5627ft 96kts
11-Nov-19 13:06 35.103866 -118.527261 99 5627ft 96kts
11-Nov-19 13:07 35.099909 -118.497697 99 5625ft 96kts
11-Nov-19 13:08 35.095580 -118.465692 99 5628ft 95kts
11-Nov-19 13:09 35.091299 -118.434450 99 5629ft 96kts
11-Nov-19 13:10 35.086997 -118.403399 99 5627ft 96kts
11-Nov-19 13:11 35.082955 -118.374505 99 5619ft 90kts
11-Nov-19 13:12 35.078937 -118.345924 100 5641ft 85kts
11-Nov-19 13:13 35.073213 -118.317575 112 5631ft 82kts
11-Nov-19 13:14 35.060613 -118.296736 135 6010ft 79kts
11-Nov-19 13:15 35.042494 -118.282072 135 6500ft 74kts
11-Nov-19 13:16 35.024859 -118.263920 131 6928ft 81kts
11-Nov-19 13:17 35.002083 -118.252791 157 7391ft 88kts
11-Nov-19 13:18 34.980165 -118.239469 138 7857ft 89kts
11-Nov-19 13:19 34.968446 -118.214753 106 8307ft 89kts
11-Nov-19 13:20 34.963987 -118.186071 104 8848ft 90kts
11-Nov-19 13:21 34.965720 -118.158997 38 9381ft 83kts
11-Nov-19 13:22 34.989051 -118.164043 338 9780ft 95kts
11-Nov-19 13:23 35.005895 -118.188603 293 10206ft 103kts
11-Nov-19 13:24 35.020796 -118.215708 304 10141ft 101kts
11-Nov-19 13:25 35.029459 -118.247911 334 9602ft 101kts
11-Nov-19 13:26 35.039351 -118.219735 113 7709ft 143kts
11-Nov-19 13:27 35.024976 -118.176980 107 5447ft 114kts
11-Nov-19 13:28 35.011033 -118.182368 332 4171ft 116kts
11-Nov-19 13:29 35.038841 -118.185298 5 3411ft 92kts
11-Nov-19 13:30 35.058488 -118.176831 64 3057ft 67kts
11-Nov-19 13:31 35.059194 -118.158541 104 2768ft 16kts
11-Nov-19 13:33 35.057238 -118.156847 110 2761ft 23kts

Navigation Log

Ident Type
Flight plan parsing failed, navigation log unavailable